createdAt,value
2023-04-09T00:02:01.871Z,7.20
2023-04-09T00:04:07.577Z,7.20
2023-04-09T00:06:15.214Z,7.30
2023-04-09T00:08:24.024Z,7.20
2023-04-09T00:10:30.218Z,7.30
2023-04-09T00:12:35.405Z,7.20
2023-04-09T00:14:43.015Z,7.10
2023-04-09T00:16:48.005Z,7.20
2023-04-09T00:18:56.648Z,7.20
2023-04-09T00:21:01.725Z,7.20
2023-04-09T00:23:06.798Z,7.20
2023-04-09T00:25:12.241Z,7.20
2023-04-09T00:27:17.336Z,7.20
2023-04-09T00:29:23.088Z,7.20
2023-04-09T00:31:30.796Z,7.20
2023-04-09T00:33:36.510Z,7.20
2023-04-09T00:35:41.862Z,7.20
2023-04-09T00:37:51.614Z,7.20
2023-04-09T00:39:57.431Z,7.10
2023-04-09T00:42:04.709Z,7.20
2023-04-09T00:44:09.780Z,7.10
2023-04-09T00:46:15.196Z,7.10
2023-04-09T00:48:23.597Z,7.10
2023-04-09T00:50:34.701Z,7.10
2023-04-09T00:52:40.807Z,7.10
2023-04-09T00:54:45.913Z,7.00
2023-04-09T00:56:51.575Z,7.10
2023-04-09T00:59:01.204Z,7.20
2023-04-09T01:01:14.056Z,7.20
2023-04-09T01:03:22.456Z,7.20
2023-04-09T01:05:32.512Z,7.20
2023-04-09T01:08:00.601Z,7.00
2023-04-09T01:10:26.448Z,6.80
2023-04-09T01:12:40.468Z,6.90
2023-04-09T01:14:58.265Z,6.90
2023-04-09T01:17:18.858Z,7.10
2023-04-09T01:19:45.242Z,7.10
2023-04-09T01:21:52.130Z,7.10
2023-04-09T01:24:05.549Z,7.10
2023-04-09T01:26:24.188Z,7.10
2023-04-09T01:28:45.957Z,7.10
2023-04-09T01:30:56.405Z,7.00
2023-04-09T01:33:03.052Z,6.80
2023-04-09T01:35:11.371Z,6.90
2023-04-09T01:37:18.478Z,6.90
2023-04-09T01:39:28.361Z,7.00
2023-04-09T01:41:36.996Z,7.00
2023-04-09T01:43:46.159Z,7.00
2023-04-09T01:45:52.759Z,6.90
2023-04-09T01:48:05.566Z,6.90
2023-04-09T01:50:12.982Z,7.00
2023-04-09T01:52:18.025Z,7.00
2023-04-09T01:54:23.072Z,6.90
2023-04-09T01:56:28.838Z,6.80
2023-04-09T01:58:34.534Z,6.80
2023-04-09T02:00:54.559Z,6.70
2023-04-09T02:03:08.261Z,6.70
2023-04-09T02:05:18.238Z,6.60
2023-04-09T02:07:36.287Z,6.70
2023-04-09T02:09:43.840Z,6.80
2023-04-09T02:11:51.444Z,6.80
2023-04-09T02:13:58.377Z,6.80
2023-04-09T02:16:08.136Z,6.80
2023-04-09T02:18:29.755Z,6.80
2023-04-09T02:20:35.915Z,6.80
2023-04-09T02:22:42.261Z,6.70
2023-04-09T02:24:50.173Z,6.60
2023-04-09T02:26:55.895Z,6.70
2023-04-09T02:29:09.182Z,6.70
2023-04-09T02:31:17.102Z,6.70
2023-04-09T02:33:21.985Z,6.70
2023-04-09T02:35:27.596Z,6.60
2023-04-09T02:37:32.742Z,6.60
2023-04-09T02:39:38.364Z,6.70
2023-04-09T02:41:46.853Z,6.70
2023-04-09T02:43:51.911Z,6.70
2023-04-09T02:45:57.158Z,6.60
2023-04-09T02:48:08.601Z,6.60
2023-04-09T02:50:14.264Z,6.60
2023-04-09T02:52:26.199Z,6.50
2023-04-09T02:54:31.510Z,6.60
2023-04-09T02:56:37.149Z,6.50
2023-04-09T02:58:42.192Z,6.50
2023-04-09T03:00:51.890Z,6.60
2023-04-09T03:02:58.221Z,6.60
2023-04-09T03:05:06.374Z,6.50
2023-04-09T03:07:16.010Z,6.40
2023-04-09T03:09:22.109Z,6.50
2023-04-09T03:11:27.347Z,6.50
2023-04-09T03:13:32.502Z,6.50
2023-04-09T03:15:37.639Z,6.50
2023-04-09T03:17:51.650Z,6.40
2023-04-09T03:19:59.731Z,6.40
2023-04-09T03:22:16.303Z,6.40
2023-04-09T03:24:21.803Z,6.40
2023-04-09T03:26:27.701Z,6.50
2023-04-09T03:28:32.825Z,6.50
2023-04-09T03:30:38.016Z,6.50
2023-04-09T03:32:59.291Z,6.50
2023-04-09T03:35:07.030Z,6.40
2023-04-09T03:37:12.156Z,6.40
2023-04-09T03:39:23.239Z,6.40
2023-04-09T03:41:29.446Z,6.50
2023-04-09T03:43:36.807Z,6.50
2023-04-09T03:45:42.413Z,6.50
2023-04-09T03:48:15.426Z,6.50
2023-04-09T03:50:21.917Z,6.50
2023-04-09T03:52:30.632Z,6.60
2023-04-09T03:54:43.683Z,6.60
2023-04-09T03:56:58.002Z,6.60
2023-04-09T03:59:10.168Z,6.60
2023-04-09T04:01:18.525Z,6.60
2023-04-09T04:03:33.486Z,6.50
2023-04-09T04:06:07.507Z,6.60
2023-04-09T04:08:32.458Z,6.50
2023-04-09T04:10:41.433Z,6.40
2023-04-09T04:12:49.042Z,6.40
2023-04-09T04:15:00.370Z,6.40
2023-04-09T04:17:14.830Z,6.40
2023-04-09T04:19:30.438Z,6.40
2023-04-09T04:21:36.537Z,6.40
2023-04-09T04:23:41.944Z,6.40
2023-04-09T04:26:04.927Z,6.30
2023-04-09T04:28:18.080Z,6.30
2023-04-09T04:30:23.464Z,6.40
2023-04-09T04:32:37.316Z,6.30
2023-04-09T04:34:46.732Z,6.40
2023-04-09T04:37:00.345Z,6.50
2023-04-09T04:39:15.462Z,6.50
2023-04-09T04:41:32.206Z,6.50
2023-04-09T04:43:50.354Z,6.50
2023-04-09T04:46:02.153Z,6.40
2023-04-09T04:48:12.131Z,6.40
2023-04-09T04:50:16.994Z,6.40
2023-04-09T04:52:54.046Z,6.40
2023-04-09T04:55:03.194Z,6.00
2023-04-09T04:57:11.212Z,6.10
2023-04-09T04:59:27.866Z,6.30
2023-04-09T05:01:50.971Z,6.40
2023-04-09T05:03:56.512Z,6.40
2023-04-09T05:06:21.828Z,6.50
2023-04-09T05:08:29.368Z,6.50
2023-04-09T05:10:36.116Z,6.50
2023-04-09T05:12:43.736Z,6.40
2023-04-09T05:14:51.178Z,6.40
2023-04-09T05:16:56.638Z,6.40
2023-04-09T05:19:14.430Z,6.40
2023-04-09T05:21:25.989Z,6.50
2023-04-09T05:23:32.946Z,6.50
2023-04-09T05:25:38.444Z,6.50
2023-04-09T05:27:49.045Z,6.50
2023-04-09T05:29:54.097Z,6.60
2023-04-09T05:32:03.763Z,6.50
2023-04-09T05:34:14.135Z,6.60
2023-04-09T05:36:27.489Z,6.40
2023-04-09T05:38:32.934Z,6.40
2023-04-09T05:40:38.048Z,6.40
2023-04-09T05:42:51.733Z,6.50
2023-04-09T05:45:05.621Z,6.50
2023-04-09T05:47:10.865Z,6.50
2023-04-09T05:49:58.738Z,6.60
2023-04-09T05:52:03.946Z,6.50
2023-04-09T05:54:10.833Z,6.60
2023-04-09T05:56:18.908Z,6.60
2023-04-09T05:58:34.358Z,6.60
2023-04-09T06:00:40.053Z,6.60
2023-04-09T06:02:46.690Z,6.60
2023-04-09T06:04:52.947Z,6.70
2023-04-09T06:07:00.463Z,6.70
2023-04-09T06:09:10.945Z,6.70
2023-04-09T06:11:17.198Z,6.70
2023-04-09T06:13:22.880Z,6.70
2023-04-09T06:15:31.292Z,6.80
2023-04-09T06:17:36.366Z,6.80
2023-04-09T06:19:41.582Z,6.80
2023-04-09T06:21:57.526Z,6.70
2023-04-09T06:24:02.614Z,6.70
2023-04-09T06:26:08.706Z,6.70
2023-04-09T06:28:25.005Z,6.70
2023-04-09T06:30:32.592Z,6.80
2023-04-09T06:32:46.853Z,6.80
2023-04-09T06:34:59.533Z,6.80
2023-04-09T06:37:04.592Z,6.80
2023-04-09T06:39:20.218Z,6.90
2023-04-09T06:41:25.513Z,6.90
2023-04-09T06:43:30.792Z,6.90
2023-04-09T06:45:41.131Z,6.80
2023-04-09T06:47:46.388Z,6.80
2023-04-09T06:49:51.466Z,7.00
2023-04-09T06:52:10.108Z,7.00
2023-04-09T06:54:16.468Z,7.00
2023-04-09T06:56:21.490Z,7.00
2023-04-09T06:58:27.175Z,7.00
2023-04-09T07:00:32.235Z,7.10
2023-04-09T07:02:43.965Z,7.20
2023-04-09T07:04:51.320Z,7.20
2023-04-09T07:06:59.313Z,7.20
2023-04-09T07:09:20.892Z,7.30
2023-04-09T07:11:26.602Z,7.30
2023-04-09T07:13:33.503Z,7.30
2023-04-09T07:15:40.087Z,7.30
2023-04-09T07:17:49.674Z,7.40
2023-04-09T07:19:54.877Z,7.50
2023-04-09T07:22:00.057Z,7.50
2023-04-09T07:24:13.565Z,7.50
2023-04-09T07:26:18.572Z,7.50
2023-04-09T07:28:42.380Z,7.70
2023-04-09T07:30:48.836Z,7.60
2023-04-09T07:32:56.712Z,7.70
2023-04-09T07:35:02.551Z,7.80
2023-04-09T07:37:07.688Z,7.70
2023-04-09T07:39:12.804Z,7.90
2023-04-09T07:41:17.829Z,8.00
2023-04-09T07:43:22.882Z,8.10
2023-04-09T07:45:33.824Z,8.20
2023-04-09T07:47:38.971Z,8.30
2023-04-09T07:49:47.199Z,8.30
2023-04-09T07:51:52.216Z,8.30
2023-04-09T07:53:57.495Z,8.40
2023-04-09T07:56:02.546Z,8.60
2023-04-09T07:58:28.487Z,8.60
2023-04-09T08:00:33.560Z,8.60
2023-04-09T08:02:38.769Z,8.50
2023-04-09T08:04:47.202Z,8.50
2023-04-09T08:06:53.732Z,8.50
2023-04-09T08:09:07.010Z,8.50
2023-04-09T08:11:12.066Z,8.60
2023-04-09T08:13:17.616Z,8.60
2023-04-09T08:15:23.036Z,8.50
2023-04-09T08:17:28.167Z,8.60
2023-04-09T08:19:53.164Z,8.70
2023-04-09T08:21:58.940Z,8.80
2023-04-09T08:24:05.214Z,8.80
2023-04-09T08:26:10.491Z,8.90
2023-04-09T08:28:23.474Z,8.80
2023-04-09T08:30:28.773Z,9.00
2023-04-09T08:32:33.984Z,9.00
2023-04-09T08:34:39.056Z,9.00
2023-04-09T08:36:50.054Z,9.00
2023-04-09T08:39:00.702Z,8.90
2023-04-09T08:41:05.831Z,8.90
2023-04-09T08:43:13.340Z,9.00
2023-04-09T08:45:18.400Z,9.00
2023-04-09T08:47:23.922Z,9.00
2023-04-09T08:49:31.676Z,9.10
2023-04-09T08:51:45.394Z,9.20
2023-04-09T08:54:04.837Z,9.30
2023-04-09T08:56:19.467Z,9.50
2023-04-09T08:58:28.469Z,9.70
2023-04-09T09:00:33.810Z,9.70
2023-04-09T09:02:39.727Z,9.50
2023-04-09T09:04:49.831Z,9.60
2023-04-09T09:06:56.591Z,9.80
2023-04-09T09:09:11.424Z,9.90
2023-04-09T09:11:30.859Z,10.00
2023-04-09T09:13:35.978Z,9.90
2023-04-09T09:15:41.567Z,10.10
2023-04-09T09:17:58.479Z,10.10
2023-04-09T09:20:25.790Z,10.20
2023-04-09T09:22:30.871Z,10.30
2023-04-09T09:24:50.662Z,10.30
2023-04-09T09:26:57.481Z,10.30
2023-04-09T09:29:10.729Z,10.40
2023-04-09T09:31:16.870Z,10.40
2023-04-09T09:33:21.964Z,10.50
2023-04-09T09:35:27.283Z,10.50
2023-04-09T09:37:33.236Z,10.60
2023-04-09T09:39:52.594Z,10.60
2023-04-09T09:42:14.165Z,10.50
2023-04-09T09:44:38.119Z,10.60
2023-04-09T09:46:44.303Z,10.60
2023-04-09T09:48:59.191Z,10.60
2023-04-09T09:51:13.870Z,10.70
2023-04-09T09:53:27.413Z,10.80
2023-04-09T09:55:43.153Z,10.80
2023-04-09T09:57:52.558Z,10.80
2023-04-09T10:00:09.630Z,10.60
2023-04-09T10:02:27.124Z,10.50
2023-04-09T10:04:36.759Z,10.70
2023-04-09T10:06:44.756Z,10.80
2023-04-09T10:08:53.109Z,10.90
2023-04-09T10:11:01.420Z,10.90
2023-04-09T10:13:10.331Z,10.80
2023-04-09T10:15:16.000Z,10.80
2023-04-09T10:17:21.886Z,10.80
2023-04-09T10:19:36.815Z,10.80
2023-04-09T10:21:56.410Z,10.70
2023-04-09T10:24:05.931Z,10.80
2023-04-09T10:26:13.839Z,10.90
2023-04-09T10:28:21.822Z,10.90
2023-04-09T10:30:44.893Z,11.00
2023-04-09T10:32:50.128Z,11.10
2023-04-09T10:34:59.455Z,11.10
2023-04-09T10:37:04.801Z,11.00
2023-04-09T10:39:17.808Z,10.90
2023-04-09T10:41:39.459Z,10.90
2023-04-09T10:43:44.794Z,11.00
2023-04-09T10:45:53.699Z,11.20
2023-04-09T10:48:10.988Z,11.50
2023-04-09T10:50:26.804Z,11.40
2023-04-09T10:52:35.345Z,11.70
2023-04-09T10:54:48.557Z,11.80
2023-04-09T10:57:18.792Z,11.70
2023-04-09T10:59:24.400Z,11.70
2023-04-09T11:01:32.824Z,11.50
2023-04-09T11:03:48.113Z,11.70
2023-04-09T11:06:06.225Z,11.60
2023-04-09T11:08:16.800Z,11.60
2023-04-09T11:10:23.735Z,11.70
2023-04-09T11:12:39.971Z,11.50
2023-04-09T11:14:49.685Z,11.80
2023-04-09T11:17:05.135Z,11.70
2023-04-09T11:19:14.676Z,11.60
2023-04-09T11:21:22.237Z,11.70
2023-04-09T11:23:32.784Z,11.80
2023-04-09T11:25:38.749Z,11.70
2023-04-09T11:27:50.641Z,11.80
2023-04-09T11:29:59.590Z,11.70
2023-04-09T11:32:05.474Z,11.60
2023-04-09T11:34:14.620Z,11.80
2023-04-09T11:36:19.888Z,11.80
2023-04-09T11:38:25.690Z,12.10
2023-04-09T11:40:34.757Z,12.40
2023-04-09T11:42:42.117Z,12.50
2023-04-09T11:44:52.744Z,12.80
2023-04-09T11:46:58.697Z,12.90
2023-04-09T11:49:05.360Z,12.70
2023-04-09T11:51:11.985Z,12.70
2023-04-09T11:53:22.056Z,12.70
2023-04-09T11:55:31.053Z,13.10
2023-04-09T11:57:46.144Z,13.40
2023-04-09T11:59:54.778Z,13.30
2023-04-09T12:02:01.737Z,13.00
2023-04-09T12:04:08.118Z,12.90
2023-04-09T12:06:13.296Z,13.00
2023-04-09T12:08:20.197Z,12.80
2023-04-09T12:10:31.565Z,12.90
2023-04-09T12:12:45.038Z,12.80
2023-04-09T12:14:56.547Z,13.10
2023-04-09T12:17:04.576Z,13.10
2023-04-09T12:19:12.026Z,13.10
2023-04-09T12:21:22.158Z,13.10
2023-04-09T12:23:27.772Z,13.70
2023-04-09T12:25:34.591Z,14.00
2023-04-09T12:27:42.640Z,14.30
2023-04-09T12:29:50.678Z,14.50
2023-04-09T12:32:00.470Z,14.90
2023-04-09T12:34:07.898Z,14.90
2023-04-09T12:36:13.370Z,14.90
2023-04-09T12:38:18.914Z,14.90
2023-04-09T12:40:25.006Z,15.50
2023-04-09T12:42:30.062Z,15.80
2023-04-09T12:44:35.292Z,14.50
2023-04-09T12:46:40.609Z,14.40
2023-04-09T12:48:49.703Z,14.70
2023-04-09T12:50:54.928Z,15.30
2023-04-09T12:52:59.968Z,15.10
2023-04-09T12:55:05.325Z,14.80
2023-04-09T12:57:11.739Z,14.80
2023-04-09T12:59:22.866Z,14.70
2023-04-09T13:01:28.226Z,14.30
2023-04-09T13:03:33.682Z,14.60
2023-04-09T13:05:42.430Z,14.70
2023-04-09T13:07:48.640Z,14.70
2023-04-09T13:09:54.344Z,15.00
2023-04-09T13:12:06.584Z,15.50
2023-04-09T13:14:14.519Z,16.10
2023-04-09T13:16:21.269Z,16.30
2023-04-09T13:18:26.537Z,15.60
2023-04-09T13:20:31.985Z,16.10
2023-04-09T13:22:39.895Z,15.70
2023-04-09T13:24:49.529Z,15.00
2023-04-09T13:26:55.233Z,14.40
2023-04-09T13:29:00.350Z,14.70
2023-04-09T13:31:05.957Z,14.60
2023-04-09T13:33:11.252Z,14.60
2023-04-09T13:35:19.295Z,15.40
2023-04-09T13:37:24.316Z,16.40
2023-04-09T13:39:34.390Z,16.90
2023-04-09T13:41:39.420Z,16.20
2023-04-09T13:43:45.256Z,15.70
2023-04-09T13:45:50.304Z,15.50
2023-04-09T13:47:58.765Z,15.40
2023-04-09T13:50:03.989Z,15.60
2023-04-09T13:52:09.357Z,15.80
2023-04-09T13:54:16.460Z,15.70
2023-04-09T13:56:24.358Z,15.80
2023-04-09T13:58:34.690Z,15.70
2023-04-09T14:00:41.460Z,15.90
2023-04-09T14:02:49.109Z,16.70
2023-04-09T14:04:54.216Z,17.50
2023-04-09T14:06:59.880Z,18.20
2023-04-09T14:09:07.197Z,18.30
2023-04-09T14:11:15.136Z,18.40
2023-04-09T14:13:22.786Z,18.50
2023-04-09T14:15:27.962Z,18.60
2023-04-09T14:17:32.992Z,18.90
2023-04-09T14:19:38.098Z,18.80
2023-04-09T14:21:47.423Z,19.10
2023-04-09T14:23:52.833Z,19.00
2023-04-09T14:25:57.874Z,19.50
2023-04-09T14:28:03.457Z,19.60
2023-04-09T14:30:13.916Z,18.60
2023-04-09T14:32:19.149Z,17.50
2023-04-09T14:34:24.185Z,18.70
2023-04-09T14:36:29.330Z,19.30
2023-04-09T14:38:35.844Z,19.00
2023-04-09T14:40:42.217Z,18.80
2023-04-09T14:42:48.883Z,18.90
2023-04-09T14:44:53.901Z,19.30
2023-04-09T14:47:01.699Z,18.50
2023-04-09T14:49:07.885Z,17.70
2023-04-09T14:51:13.436Z,17.90
2023-04-09T14:53:18.468Z,18.00
2023-04-09T14:55:25.629Z,18.10
2023-04-09T14:57:31.717Z,18.00
2023-04-09T14:59:37.016Z,17.90
2023-04-09T15:01:42.979Z,17.80
2023-04-09T15:03:50.857Z,17.70
2023-04-09T15:05:56.911Z,17.80
2023-04-09T15:08:02.254Z,17.60
2023-04-09T15:10:08.476Z,17.40
2023-04-09T15:12:13.521Z,17.50
2023-04-09T15:14:20.510Z,17.60
2023-04-09T15:16:27.726Z,18.10
2023-04-09T15:18:32.797Z,18.40
2023-04-09T15:20:45.696Z,18.20
2023-04-09T15:22:50.714Z,18.10
2023-04-09T15:24:57.197Z,17.60
2023-04-09T15:27:05.147Z,17.30
2023-04-09T15:29:11.272Z,16.50
2023-04-09T15:31:17.001Z,16.70
2023-04-09T15:33:22.050Z,16.70
2023-04-09T15:35:29.554Z,16.30
2023-04-09T15:37:37.033Z,16.30
2023-04-09T15:39:42.330Z,16.50
2023-04-09T15:41:48.086Z,16.00
2023-04-09T15:43:55.687Z,16.50
2023-04-09T15:46:00.784Z,16.30
2023-04-09T15:48:07.169Z,15.90
2023-04-09T15:50:13.360Z,15.20
2023-04-09T15:52:18.398Z,15.10
2023-04-09T15:54:26.128Z,15.70
2023-04-09T15:56:31.238Z,16.00
2023-04-09T15:58:36.313Z,16.30
2023-04-09T16:00:46.691Z,16.20
2023-04-09T16:02:53.192Z,16.20
2023-04-09T16:04:58.583Z,16.50
2023-04-09T16:07:04.405Z,16.20
2023-04-09T16:09:09.688Z,16.10
2023-04-09T16:11:17.874Z,16.10
2023-04-09T16:13:22.918Z,16.00
2023-04-09T16:15:28.326Z,15.80
2023-04-09T16:17:40.277Z,15.90
2023-04-09T16:19:46.397Z,15.70
2023-04-09T16:21:51.420Z,15.90
2023-04-09T16:23:57.634Z,16.00
2023-04-09T16:26:02.684Z,16.30
2023-04-09T16:28:13.991Z,16.30
2023-04-09T16:30:19.364Z,16.00
2023-04-09T16:32:24.544Z,15.90
2023-04-09T16:34:31.629Z,16.50
2023-04-09T16:36:37.345Z,16.70
2023-04-09T16:38:42.373Z,16.10
2023-04-09T16:40:50.057Z,16.20
2023-04-09T16:42:55.165Z,16.40
2023-04-09T16:45:04.568Z,16.80
2023-04-09T16:47:09.745Z,16.80
2023-04-09T16:49:15.619Z,16.90
2023-04-09T16:51:21.340Z,17.20
2023-04-09T16:53:26.794Z,17.10
2023-04-09T16:55:31.887Z,17.10
2023-04-09T16:57:38.245Z,17.20
2023-04-09T16:59:47.344Z,17.10
2023-04-09T17:01:55.083Z,17.10
2023-04-09T17:04:02.207Z,17.10
2023-04-09T17:06:08.041Z,16.90
2023-04-09T17:08:14.316Z,17.00
2023-04-09T17:10:19.894Z,17.00
2023-04-09T17:12:25.041Z,17.00
2023-04-09T17:14:30.260Z,17.00
2023-04-09T17:16:36.471Z,16.80
2023-04-09T17:18:45.476Z,16.90
2023-04-09T17:20:50.930Z,16.80
2023-04-09T17:22:56.632Z,16.70
2023-04-09T17:25:01.853Z,16.70
2023-04-09T17:27:07.455Z,16.60
2023-04-09T17:29:16.857Z,16.60
2023-04-09T17:31:24.407Z,16.70
2023-04-09T17:33:29.957Z,16.90
2023-04-09T17:35:37.694Z,16.70
2023-04-09T17:37:42.808Z,16.40
2023-04-09T17:39:47.901Z,16.00
2023-04-09T17:41:58.365Z,15.70
2023-04-09T17:44:03.655Z,15.40
2023-04-09T17:46:09.269Z,15.20
2023-04-09T17:48:21.465Z,14.90
2023-04-09T17:50:26.565Z,14.70
2023-04-09T17:52:37.178Z,14.70
2023-04-09T17:54:45.472Z,14.80
2023-04-09T17:56:50.718Z,14.90
2023-04-09T17:58:57.233Z,14.80
2023-04-09T18:01:02.384Z,14.80
2023-04-09T18:03:08.005Z,14.60
2023-04-09T18:05:13.544Z,14.60
2023-04-09T18:07:18.594Z,14.50
2023-04-09T18:09:26.869Z,14.50
2023-04-09T18:11:32.057Z,14.20
2023-04-09T18:13:37.452Z,14.20
2023-04-09T18:15:44.610Z,14.10
2023-04-09T18:17:49.837Z,14.00
2023-04-09T18:19:58.446Z,13.80
2023-04-09T18:22:03.864Z,12.80
2023-04-09T18:24:09.795Z,11.80
2023-04-09T18:26:17.390Z,11.40
2023-04-09T18:28:22.440Z,11.90
2023-04-09T18:30:27.829Z,12.40
2023-04-09T18:32:33.683Z,12.70
2023-04-09T18:34:39.161Z,12.80
2023-04-09T18:36:44.389Z,12.80
2023-04-09T18:38:49.450Z,12.70
2023-04-09T18:40:57.935Z,12.60
2023-04-09T18:43:05.653Z,12.60
2023-04-09T18:45:12.013Z,12.60
2023-04-09T18:47:17.499Z,12.50
2023-04-09T18:49:22.708Z,12.40
2023-04-09T18:51:28.027Z,12.10
2023-04-09T18:53:33.435Z,11.70
2023-04-09T18:55:38.814Z,11.30
2023-04-09T18:57:46.190Z,10.10
2023-04-09T18:59:53.948Z,9.50
2023-04-09T19:01:59.145Z,9.10
2023-04-09T19:04:04.577Z,8.90
2023-04-09T19:06:18.166Z,8.90
2023-04-09T19:08:23.417Z,9.70
2023-04-09T19:10:28.867Z,10.40
2023-04-09T19:12:33.889Z,10.60
2023-04-09T19:14:40.329Z,10.80
2023-04-09T19:16:47.951Z,10.70
2023-04-09T19:18:53.142Z,10.50
2023-04-09T19:20:58.554Z,10.40
2023-04-09T19:23:03.613Z,10.50
2023-04-09T19:25:10.439Z,9.70
2023-04-09T19:27:15.460Z,9.70
2023-04-09T19:29:22.406Z,10.20
2023-04-09T19:31:27.838Z,10.30
2023-04-09T19:33:35.637Z,10.40
2023-04-09T19:35:41.208Z,10.20
2023-04-09T19:37:46.263Z,9.10
2023-04-09T19:39:51.344Z,8.80
2023-04-09T19:41:57.404Z,9.20
2023-04-09T19:44:03.478Z,9.50
2023-04-09T19:46:09.645Z,9.40
2023-04-09T19:48:15.951Z,9.50
2023-04-09T19:50:23.843Z,9.30
2023-04-09T19:52:29.001Z,9.40
2023-04-09T19:54:34.218Z,9.40
2023-04-09T19:56:39.431Z,9.10
2023-04-09T19:58:45.878Z,8.80
2023-04-09T20:00:51.949Z,9.10
2023-04-09T20:02:57.863Z,9.40
2023-04-09T20:05:03.349Z,9.50
2023-04-09T20:07:10.952Z,9.20
2023-04-09T20:09:18.591Z,9.10
2023-04-09T20:11:23.950Z,8.40
2023-04-09T20:13:29.506Z,7.90
2023-04-09T20:15:34.682Z,7.40
2023-04-09T20:17:41.707Z,7.40
2023-04-09T20:19:46.757Z,7.40
2023-04-09T20:21:54.979Z,7.40
2023-04-09T20:24:02.681Z,7.30
2023-04-09T20:26:09.798Z,7.50
2023-04-09T20:28:17.352Z,7.30
2023-04-09T20:30:22.717Z,7.50
2023-04-09T20:32:28.415Z,7.10
2023-04-09T20:34:33.473Z,7.50
2023-04-09T20:36:42.263Z,7.70
2023-04-09T20:38:51.388Z,8.10
2023-04-09T20:40:59.373Z,8.30
2023-04-09T20:43:04.509Z,8.40
2023-04-09T20:45:11.312Z,8.10
2023-04-09T20:47:16.505Z,8.10
2023-04-09T20:49:21.766Z,7.60
2023-04-09T20:51:28.436Z,7.80
2023-04-09T20:53:33.974Z,7.90
2023-04-09T20:55:39.223Z,8.10
2023-04-09T20:57:46.828Z,8.10
2023-04-09T20:59:53.079Z,7.90
2023-04-09T21:01:58.526Z,8.00
2023-04-09T21:04:06.161Z,8.00
2023-04-09T21:06:11.486Z,8.00
2023-04-09T21:08:21.377Z,8.10
2023-04-09T21:10:26.411Z,8.20
2023-04-09T21:12:32.789Z,7.90
2023-04-09T21:14:40.545Z,6.90
2023-04-09T21:16:45.995Z,6.50
2023-04-09T21:18:55.121Z,6.40
2023-04-09T21:21:02.405Z,6.70
2023-04-09T21:23:07.806Z,7.00
2023-04-09T21:25:15.197Z,7.40
2023-04-09T21:27:20.717Z,7.30
2023-04-09T21:29:26.022Z,7.10
2023-04-09T21:31:38.942Z,6.90
2023-04-09T21:33:44.215Z,6.60
2023-04-09T21:35:49.257Z,6.70
2023-04-09T21:37:55.137Z,7.10
2023-04-09T21:40:00.180Z,7.40
2023-04-09T21:42:05.957Z,7.50
2023-04-09T21:44:10.997Z,7.50
2023-04-09T21:46:16.328Z,7.40
2023-04-09T21:48:28.321Z,7.00
2023-04-09T21:50:35.186Z,7.00
2023-04-09T21:52:42.777Z,6.80
2023-04-09T21:54:48.306Z,6.60
2023-04-09T21:56:53.320Z,6.50
2023-04-09T21:58:58.722Z,6.50
2023-04-09T22:01:04.084Z,6.70
2023-04-09T22:03:09.381Z,6.50
2023-04-09T22:05:17.429Z,6.30
2023-04-09T22:07:22.852Z,6.10
2023-04-09T22:09:28.312Z,6.30
2023-04-09T22:11:34.574Z,6.30
2023-04-09T22:13:39.854Z,6.30
2023-04-09T22:15:45.284Z,6.60
2023-04-09T22:17:52.909Z,6.80
2023-04-09T22:19:58.961Z,6.60
2023-04-09T22:22:06.594Z,6.60
2023-04-09T22:24:14.199Z,6.40
2023-04-09T22:26:19.235Z,5.80
2023-04-09T22:28:24.400Z,5.90
2023-04-09T22:30:31.284Z,6.40
2023-04-09T22:32:36.334Z,6.50
2023-04-09T22:34:42.140Z,6.40
2023-04-09T22:36:47.210Z,6.40
2023-04-09T22:38:55.051Z,6.30
2023-04-09T22:41:00.541Z,6.50
2023-04-09T22:43:05.846Z,6.50
2023-04-09T22:45:13.181Z,6.50
2023-04-09T22:47:18.264Z,6.40
2023-04-09T22:49:24.132Z,6.30
2023-04-09T22:51:29.517Z,6.00
2023-04-09T22:53:34.546Z,5.80
2023-04-09T22:55:42.577Z,5.90
2023-04-09T22:57:47.607Z,5.60
2023-04-09T22:59:52.621Z,5.80
2023-04-09T23:01:58.246Z,6.10
2023-04-09T23:04:03.631Z,6.10
2023-04-09T23:06:09.778Z,6.10
2023-04-09T23:08:16.999Z,6.10
2023-04-09T23:10:22.427Z,6.20
2023-04-09T23:12:30.119Z,6.10
2023-04-09T23:14:35.378Z,6.20
2023-04-09T23:16:40.795Z,6.10
2023-04-09T23:18:46.493Z,6.10
2023-04-09T23:20:51.813Z,6.10
2023-04-09T23:22:56.821Z,5.70
2023-04-09T23:25:02.069Z,5.70
2023-04-09T23:27:07.656Z,5.40
2023-04-09T23:29:17.594Z,4.30
2023-04-09T23:31:22.765Z,4.30
2023-04-09T23:33:27.880Z,4.60
2023-04-09T23:35:33.298Z,4.70
2023-04-09T23:37:38.861Z,5.00
2023-04-09T23:39:44.218Z,5.40
2023-04-09T23:41:49.647Z,5.40
2023-04-09T23:43:54.946Z,5.40
2023-04-09T23:46:03.212Z,5.50
2023-04-09T23:48:11.552Z,5.40
2023-04-09T23:50:17.797Z,5.50
2023-04-09T23:52:23.571Z,5.10
2023-04-09T23:54:29.508Z,5.30
2023-04-09T23:56:34.866Z,5.50
2023-04-09T23:58:40.140Z,5.20
